Sagehen Creek Weather observations

Data are for observation ending at time listed.
 Day   Time    Ave.   Ave.  Ave.  Vector   Max.   Stn.    Total    Solar   Ave.  
  of    of     Air    Rel.  Wind   Wind    Wind   Baro.  Precip.   Rad.    Soil  
Year   Day     Temp.  Hum.  Speed  Dir.    Gust   Pres.                    Temp. 
2015   (PST)    F      %     mph   deg.    mph     mb.     in.     W/m2     F   
------------------------------------------------------------------------------
  63   23:20   20.3    87    0.4   257      1.1   839.7   10.71       0    999.0
  63   23:30   20.0    87    0.2   225      0.7   839.6   10.71       0    999.0
  63   23:40   19.6    86    0.0     0      0.0   839.9   10.71       0    999.0
  63   23:50   19.3    87    0.1   251      0.4   839.6   10.71       0    999.0
  64    0:00   19.0    87    0.1   278      0.8   839.4   10.71       0    999.0
  64    0:10   18.8    88    0.0   279      0.4   840.0   10.71       0    999.0
  64    0:20   18.4    88    0.0     0      0.0   839.8   10.71       0    999.0
  64    0:30   32.0     0    0.0     0      0.0   419.8   10.71       0    999.0
  64    0:40   18.8    84    0.2   270      1.0   839.7   10.71       0    999.0
  64    0:50   17.7    89    0.0     0      0.0   840.0   10.71       0    999.0
  64    1:00   17.5    89    0.3   266      0.8   840.3   10.71       0    999.0
  64    1:10   17.5    90    0.0   253      0.5   839.9   10.71       0    999.0
  64    1:20   17.3    90    0.4   274      1.0   840.2   10.71       0    999.0
  64    1:30   17.2    90    0.1   269      0.9   840.4   10.71       0    999.0
  64    1:40   16.8    89    0.0     0      0.0   839.8   10.71       0    999.0
  64    1:50   16.7    89    0.2   271      0.8   840.1   10.71       0    999.0
  64    2:00   16.6    90    0.3   263      0.8   840.3   10.71       0    999.0
  64    2:10   16.4    89    0.0   261      0.2   840.0   10.71       0    999.0
  64    2:20   15.9    89    0.0   268      0.5   840.2   10.71       0    999.0
  64    2:30   15.9    90    0.0     0      0.0   840.3   10.71       0    999.0
  64    2:40   15.7    90    0.1   280      0.7   840.2   10.71       0    999.0
  64    2:50   15.5    89    0.1   273      0.7   840.2   10.71       0    999.0
  64    3:00   15.3    89    0.0   267      0.4   840.2   10.71       0    999.0
  64    3:10   15.1    90    0.0   267      0.5   839.9   10.71       0    999.0
  64    3:20   15.0    90    0.0   266      0.4   840.1   10.71       0    999.0
  64    3:30   14.9    90    0.0   266      0.6   840.3   10.71       0    999.0
  64    3:40   14.8    89    0.0     0      0.0   840.1   10.71       0    999.0
  64    3:50   14.7    89    0.0     0      0.0   840.2   10.71       0    999.0
  64    4:00   14.6    89    0.0     0      0.0   840.3   10.71       0    999.0
  64    4:10   14.4    89    0.1   270      0.7   839.9   10.71       0    999.0
  64    4:20   14.2    89    0.1   269      0.5   840.2   10.71       0    999.0
  64    4:30   14.1    89    0.0     0      0.0   840.5   10.71       0    999.0
  64    4:40   13.9    89    0.0     0      0.0   840.5   10.71       0    999.0
  64    4:50   13.7    89    0.3   269      0.8   840.3   10.71       0    999.0
  64    5:00   13.6    89    0.0     0      0.0   840.1   10.71       0    999.0
  64    5:10   13.5    89    0.1   273      0.5   840.6   10.72       0    999.0
  64    5:20   13.4    89    0.4   276      0.9   840.4   10.72       0    999.0
  64    5:30   13.3    89    0.0     0      0.0   840.2   10.72       0    999.0
  64    5:40   13.1    88    0.0     0      0.0   840.7   10.72       0    999.0
  64    5:50   12.9    88    0.1   266      0.7   840.8   10.72       0    999.0
  64    6:00   12.7    88    0.0     0      0.0   840.9   10.71       0    999.0
  64    6:10   12.6    88    0.2   271      0.5   840.6   10.72       0    999.0
  64    6:20   12.5    88    0.0     0      0.0   840.8   10.72       1    999.0
  64    6:30   12.4    88    0.3   279      1.1   841.1   10.72       2    999.0
  64    6:40   12.3    88    0.0   266      0.3   840.9   10.72       6    999.0
  64    6:50   12.3    88    0.1   274      0.7   841.0   10.72      10    999.0
  64    7:00   12.4    88    0.3   275      0.7   841.1   10.72      13    999.0
  64    7:10   12.6    88    0.0     0      0.0   841.3   10.72      19    999.0
  64    7:20   12.9    88    0.0     0      0.0   841.1   10.72      34    999.0
  64    7:30   13.9    89    0.0     0      0.0   841.0   10.72     135    999.0
  64    7:40   15.6    88    0.0     0      0.0   841.4   10.72     182    999.0
  64    7:50   17.3    86    0.0     0      0.0   841.3   10.72     223    999.0
  64    8:00   18.2    83    0.0     0      0.0   841.2   10.72     258    999.0
  64    8:10   18.8    84    0.2   180      1.0   841.8   10.71     288    999.0
  64    8:20   20.2    85    0.2   166      1.0   841.5   10.71     318    999.0
  64    8:30   23.7    80    0.3   144      0.9   841.3   10.71     349    999.0
  64    8:40   26.9    72    0.7   148      1.9   841.8   10.71     381    999.0
  64    8:50   29.1    66    1.2   134      3.1   841.7   10.71     420    999.0
  64    9:00   31.3    58    1.0   132      2.5    14.3   10.71     458    999.0
  64    9:10   33.3    56    1.7   119      4.1   841.8   10.71     488    999.0
  64    9:20   34.3    53    3.3   103      5.3   841.6   10.71     514    999.0
  64    9:30   35.5    51    3.8   101      6.2   841.4   10.71     541    999.0
  64    9:40   37.0    49    3.4    97      5.4   841.7   10.71     566    999.0
  64    9:50   38.7    46    3.2    99      6.0   841.7   10.71     591    999.0
  64   10:00   40.2    43    3.0    96      4.7   841.8   10.71     614    999.0
  64   10:10   41.6    40    2.7   100      5.2   841.5   10.71     636    999.0
  64   10:20   43.5    37    2.9    94      6.1   841.7   10.71     658    999.0
  64   10:30   43.6    37    4.3    90      6.4   841.9   10.71     676    999.0
  64   10:40   45.0    38    2.6    82      7.6   841.4   10.70     694    999.0
  64   10:50   45.9    36    3.3    89      6.6   841.6   10.70     687    999.0
  64   11:00   47.1    34    3.2    80      7.9   841.8   10.70     727    999.0
  64   11:10   47.6    32    3.8    88      7.9   841.5   10.70     740    999.0
  64   11:20   48.4    31    2.7    85      7.4   841.5   10.70     752    999.0
  64   11:30   49.7    29    2.8    91      7.0   841.4   10.70     762    999.0
  64   11:40   50.4    28    3.0    82      6.0   841.7   10.70     770    999.0
  64   11:50   50.8    27    3.0    77      8.2   841.5   10.70     776    999.0
  64   12:00   52.2    26    2.6    90      8.2   841.4   10.70     781    999.0
  64   12:10   51.9    26    4.1    81      8.7   841.1   10.70     783    999.0
  64   12:20   52.4    25    2.5   100      6.3   841.2   10.70     783    999.0
  64   12:30   53.0    24    3.1   110      8.3   841.3   10.70     782    999.0
  64   12:40   53.5    23    2.3    84      5.8   841.4   10.70     780    999.0
  64   12:50   53.8    21    3.3    85      6.2   841.4   10.70     776    999.0
  64   13:00   53.9    22    2.6    92      5.7   841.3   10.70     769    999.0
  64   13:10   54.6    20    2.1    49      6.9   841.0   10.70     760    999.0
  64   13:20   55.7    19    1.8    19      4.4   841.0   10.70     751    999.0
  64   13:30   55.2    18    3.1   106      6.1   840.9   10.70     738    999.0
  64   13:40   55.7    17    1.6   150      3.8   840.7   10.71     725    999.0
  64   13:50   55.9    15    2.5   168      5.1   840.7   10.70     712    999.0
  64   14:00   56.8    14    1.3   221      4.6   840.7   10.70     694    999.0
  64   14:10   57.0    14    1.5   248      3.7   840.7   10.70     677    999.0
  64   14:20   56.8    14    1.7   270      4.7   840.7   10.71     655    999.0
  64   14:30   56.7    14    1.4   114      5.5   840.7   10.70     631    999.0
  64   14:40   56.0    15    3.3    98      7.3   840.7   10.70     607    999.0
  64   14:50   54.8    19    4.7   102     11.1   840.7   10.70     582    999.0
  64   15:00   50.1    14    1.0   220      1.8   210.2   10.70     546    999.0
  64   15:10   55.9    19    1.6   129      4.8   840.7   10.70     532    999.0
  64   15:20   56.2    19    1.4   281      6.2   840.7   10.71     504    999.0
  64   15:30   55.5    18    2.1   120      5.4   840.7   10.71     474    999.0
  64   15:40   54.0    20    3.6    87      7.2   840.6   10.71     441    999.0
  64   15:50   53.2    24    2.1    86      5.5   840.5   10.71     409    999.0
  64   16:00   52.1    22    1.6   240      4.0   840.5   10.71     298    999.0
  64   16:10   51.5    21    1.1   233      2.7   840.7   10.71      38    999.0
  64   16:20   50.7    26    0.7   195      2.2   840.9   10.71      34    999.0
  64   16:30   49.2    30    1.1   211      3.5   841.1   10.71      31    999.0
  64   16:40   48.3    36    0.2   118      1.3   841.0   10.71      30    999.0
  64   16:50   46.0    42    0.6   176      2.4   840.8   10.71      30    999.0
  64   17:00   44.9    44    0.6   331      1.9   840.6   10.71      27    999.0
  64   17:10   42.8    52    0.3   282      1.4   841.2   10.71      23    999.0
  64   17:20   40.6    55    0.4   270      1.4   841.2   10.71      19    999.0
  64   17:30   38.6    59    1.3   264      2.1   841.1   10.71      15    999.0
  64   17:40   36.9    63    1.3   267      1.6   841.2   10.71      11    999.0
  64   17:50   35.4    68    0.9   252      1.5   841.3   10.71       8    999.0
  64   18:00   34.3    67    0.7   245      1.6   841.3   10.71       4    999.0
  64   18:10   33.4    68    0.7   248      1.4   841.6   10.71       1    999.0
  64   18:20   32.5    69    0.7   262      1.2   841.4   10.71       0    999.0
  64   18:30   31.9    66    1.1   263      1.5   841.3   10.71       0    999.0
  64   18:40   31.2    69    0.8   252      1.4   841.9   10.71       0    999.0
  64   18:50   30.3    74    0.2   241      1.0   841.8   10.71       0    999.0
  64   19:00   29.6    74    1.1   252      2.2   841.7   10.71       0    999.0
  64   19:10   29.0    76    0.4   247      1.1   841.6   10.71       0    999.0
  64   19:20   28.6    77    0.5   245      0.9   841.9   10.71       0    999.0
  64   19:30   28.1    77    0.3   237      0.9   842.1   10.71       0    999.0
  64   19:40   27.8    79    0.5   243      1.5   841.9   10.71       0    999.0
  64   19:50   27.4    79    0.3   249      0.7   841.9   10.71       0    999.0
  64   20:00   27.2    80    0.6   248      1.2   842.0   10.71       0    999.0
  64   20:10   27.1    80    0.6   232      1.1   842.3   10.71       0    999.0
  64   20:20   27.0    80    0.4   245      1.0   842.1   10.71       0    999.0
  64   20:30   26.7    81    0.2   260      0.9   842.0   10.71       0    999.0
  64   20:40   26.5    81    0.5   262      1.1   842.2   10.71       0    999.0
  64   20:50   26.4    82    0.3   259      0.8   842.3   10.71       0    999.0
  64   21:00   26.3    82    0.2   261      0.7   842.4   10.71       0    999.0
  64   21:10   26.2    82    0.4   262      0.9   842.0   10.71       0    999.0
  64   21:20   26.1    83    0.2   244      0.6   842.2   10.71       0    999.0
  64   21:30   25.9    84    0.1   236      0.7   842.5   10.71       0    999.0
  64   21:40   25.7    85    0.0   239      0.3   842.7   10.71       0    999.0
  64   21:50   25.7    85    0.2   249      0.5   842.4   10.71       0    999.0
  64   22:00   25.6    83    0.3   258      0.9   842.1   10.71       0    999.0
  64   22:10   25.6    82    0.2   260      0.9   842.7   10.71       0    999.0
  64   22:20   25.3    83    0.0   257      0.2   842.6   10.71       0    999.0
  64   22:30   25.3    83    0.0   256      0.7   842.5   10.71       0    999.0
  64   22:40   24.9    85    0.0   256      0.4   842.4   10.71       0    999.0
  64   22:50   24.5    86    0.0   254      0.3   842.5   10.71       0    999.0
  64   23:00   24.4    85    0.2   254      0.9   842.6   10.71       0    999.0
  64   23:10   24.4    84    0.1   252      0.7   842.3   10.71       0    999.0

Return to Sagehen Creek graphs page.


Western Regional Climate Center,wrcc@dri.edu